Las Vegas, Nevada
Traffic Map
Current Weather Conditions
Las Vegas, Nevada
Broken Clouds
Broken Clouds
29°
Feels Like: 29°
Wind Chill: 29° Ceiling: 17000
Heat Index: 29° Visibility: 10mi
Dew Point: 11° Wind: 21mph
Humidity: 33% Direction: 180° (S)
Pressure: 29.94in Gusts: 33mph
Raw Report DataKLAS 212156Z 18018G29KT 10SM FEW080 SCT100 BKN170 29/11 A2994 RMK AO2 PK WND 19031/2058 LTG DSNT N SLP114 VCSH CB DSNT S AND N T02890111
Traffic Incident Summary
Active as of:
Severity:
Category:
InformationThere was an issue retrieving the traffic information for this location. Please try a different location or try again shortly.
Advertisements
Track Severe Weather on mobile